sensor_id;sensor_type;location;lat;lon;timestamp;pressure;altitude;pressure_sealevel;temperature;humidity
1207;BME280;593;53.184;8.216;2022-08-03T00:02:21;101097.00;;;22.94;90.11
1207;BME280;593;53.184;8.216;2022-08-03T00:04:47;101103.06;;;23.00;90.08
1207;BME280;593;53.184;8.216;2022-08-03T00:07:12;101091.69;;;22.89;89.80
1207;BME280;593;53.184;8.216;2022-08-03T00:09:38;101103.81;;;22.97;89.99
1207;BME280;593;53.184;8.216;2022-08-03T00:12:04;101100.56;;;22.95;89.80
1207;BME280;593;53.184;8.216;2022-08-03T00:14:29;101106.47;;;22.93;90.14
1207;BME280;593;53.184;8.216;2022-08-03T00:16:55;101098.41;;;22.88;90.36
1207;BME280;593;53.184;8.216;2022-08-03T00:19:20;101103.25;;;22.91;90.35
1207;BME280;593;53.184;8.216;2022-08-03T00:21:45;101096.06;;;22.90;90.24
1207;BME280;593;53.184;8.216;2022-08-03T00:24:11;101098.78;;;22.87;90.14
1207;BME280;593;53.184;8.216;2022-08-03T00:26:36;101093.91;;;22.84;90.15
1207;BME280;593;53.184;8.216;2022-08-03T00:29:02;101088.25;;;22.80;90.14
1207;BME280;593;53.184;8.216;2022-08-03T00:31:27;101100.53;;;22.79;89.99
1207;BME280;593;53.184;8.216;2022-08-03T00:33:53;101100.06;;;22.77;90.04
1207;BME280;593;53.184;8.216;2022-08-03T00:36:18;101102.38;;;22.75;90.13
1207;BME280;593;53.184;8.216;2022-08-03T00:38:43;101103.91;;;22.73;90.08
1207;BME280;593;53.184;8.216;2022-08-03T00:41:09;101094.22;;;22.67;90.42
1207;BME280;593;53.184;8.216;2022-08-03T00:43:34;101103.34;;;22.67;90.52
1207;BME280;593;53.184;8.216;2022-08-03T00:45:59;101089.94;;;22.57;90.59
1207;BME280;593;53.184;8.216;2022-08-03T00:48:25;101097.13;;;22.58;90.74
1207;BME280;593;53.184;8.216;2022-08-03T00:50:50;101106.69;;;22.61;91.08
1207;BME280;593;53.184;8.216;2022-08-03T00:53:16;101101.84;;;22.58;90.83
1207;BME280;593;53.184;8.216;2022-08-03T00:55:42;101103.03;;;22.57;90.66
1207;BME280;593;53.184;8.216;2022-08-03T00:58:08;101101.28;;;22.52;91.04
1207;BME280;593;53.184;8.216;2022-08-03T01:00:37;101089.53;;;22.43;90.95
1207;BME280;593;53.184;8.216;2022-08-03T01:03:08;101097.63;;;22.48;91.03
1207;BME280;593;53.184;8.216;2022-08-03T01:08:45;101089.91;;;22.42;91.23
1207;BME280;593;53.184;8.216;2022-08-03T01:11:21;101095.34;;;22.38;91.02
1207;BME280;593;53.184;8.216;2022-08-03T01:13:56;101095.25;;;22.34;91.10
1207;BME280;593;53.184;8.216;2022-08-03T01:16:55;101093.16;;;22.31;91.24
1207;BME280;593;53.184;8.216;2022-08-03T01:19:30;101087.50;;;22.28;90.77
1207;BME280;593;53.184;8.216;2022-08-03T01:24:55;101084.16;;;22.22;91.01
1207;BME280;593;53.184;8.216;2022-08-03T01:27:30;101084.06;;;22.19;91.14
1207;BME280;593;53.184;8.216;2022-08-03T01:30:05;101093.09;;;22.16;91.88
1207;BME280;593;53.184;8.216;2022-08-03T01:32:56;101080.63;;;22.10;91.74
1207;BME280;593;53.184;8.216;2022-08-03T01:35:34;101089.41;;;22.12;92.05
1207;BME280;593;53.184;8.216;2022-08-03T01:38:03;101083.75;;;22.08;92.35
1207;BME280;593;53.184;8.216;2022-08-03T01:40:33;101089.16;;;22.05;91.84
1207;BME280;593;53.184;8.216;2022-08-03T01:43:02;101091.47;;;22.03;92.10
1207;BME280;593;53.184;8.216;2022-08-03T01:45:29;101092.19;;;22.00;91.71
1207;BME280;593;53.184;8.216;2022-08-03T01:47:56;101081.81;;;21.97;91.69
1207;BME280;593;53.184;8.216;2022-08-03T01:50:24;101079.38;;;21.95;91.90
1207;BME280;593;53.184;8.216;2022-08-03T01:52:51;101075.56;;;21.88;92.27
1207;BME280;593;53.184;8.216;2022-08-03T01:55:19;101089.53;;;21.91;92.18
1207;BME280;593;53.184;8.216;2022-08-03T01:57:47;101079.16;;;21.88;92.34
1207;BME280;593;53.184;8.216;2022-08-03T02:00:13;101068.06;;;21.76;92.29
1207;BME280;593;53.184;8.216;2022-08-03T02:02:41;101084.53;;;21.85;92.12
1207;BME280;593;53.184;8.216;2022-08-03T02:05:08;101074.19;;;21.82;92.38
1207;BME280;593;53.184;8.216;2022-08-03T02:07:35;101076.47;;;21.80;92.20
1207;BME280;593;53.184;8.216;2022-08-03T02:10:03;101058.03;;;21.71;92.34
1207;BME280;593;53.184;8.216;2022-08-03T02:12:30;101066.78;;;21.73;92.33
1207;BME280;593;53.184;8.216;2022-08-03T02:14:58;101066.34;;;21.71;92.60
1207;BME280;593;53.184;8.216;2022-08-03T02:17:25;101061.94;;;21.70;92.65
1207;BME280;593;53.184;8.216;2022-08-03T02:19:52;101061.81;;;21.67;92.70
1207;BME280;593;53.184;8.216;2022-08-03T02:22:18;101064.13;;;21.65;92.71
1207;BME280;593;53.184;8.216;2022-08-03T02:24:45;101047.16;;;21.54;92.84
1207;BME280;593;53.184;8.216;2022-08-03T02:27:19;101062.41;;;21.60;92.85
1207;BME280;593;53.184;8.216;2022-08-03T02:29:48;101058.38;;;21.58;93.11
1207;BME280;593;53.184;8.216;2022-08-03T02:32:19;101057.91;;;21.56;93.25
1207;BME280;593;53.184;8.216;2022-08-03T02:34:48;101055.84;;;21.53;93.24
1207;BME280;593;53.184;8.216;2022-08-03T02:37:18;101053.41;;;21.51;93.12
1207;BME280;593;53.184;8.216;2022-08-03T02:39:44;101056.53;;;21.50;93.41
1207;BME280;593;53.184;8.216;2022-08-03T02:42:13;101052.47;;;21.47;93.54
1207;BME280;593;53.184;8.216;2022-08-03T02:44:41;101048.44;;;21.45;93.30
1207;BME280;593;53.184;8.216;2022-08-03T02:47:12;101046.84;;;21.44;93.47
1207;BME280;593;53.184;8.216;2022-08-03T02:49:37;101047.88;;;21.39;93.47
1207;BME280;593;53.184;8.216;2022-08-03T02:52:08;101056.88;;;21.36;93.62
1207;BME280;593;53.184;8.216;2022-08-03T02:54:37;101054.78;;;21.33;93.94
1207;BME280;593;53.184;8.216;2022-08-03T02:57:06;101041.19;;;21.28;93.71
1207;BME280;593;53.184;8.216;2022-08-03T02:59:33;101052.72;;;21.30;93.61
1207;BME280;593;53.184;8.216;2022-08-03T03:01:59;101052.25;;;21.28;93.83
1207;BME280;593;53.184;8.216;2022-08-03T03:04:28;101049.84;;;21.27;93.75
1207;BME280;593;53.184;8.216;2022-08-03T03:06:54;101052.13;;;21.25;94.12
1207;BME280;593;53.184;8.216;2022-08-03T03:09:21;101049.72;;;21.23;94.03
1207;BME280;593;53.184;8.216;2022-08-03T03:11:47;101049.25;;;21.21;94.34
1207;BME280;593;53.184;8.216;2022-08-03T03:14:13;101051.06;;;21.17;94.66
1207;BME280;593;53.184;8.216;2022-08-03T03:16:40;101053.84;;;21.17;94.89
1207;BME280;593;53.184;8.216;2022-08-03T03:19:07;101050.63;;;21.15;94.89
1207;BME280;593;53.184;8.216;2022-08-03T03:21:34;101051.28;;;21.12;94.81
1207;BME280;593;53.184;8.216;2022-08-03T03:24:01;101041.47;;;21.02;94.75
1207;BME280;593;53.184;8.216;2022-08-03T03:26:26;101043.41;;;21.02;95.25
1207;BME280;593;53.184;8.216;2022-08-03T03:28:52;101055.09;;;21.07;95.04
1207;BME280;593;53.184;8.216;2022-08-03T03:31:18;101047.44;;;21.04;95.50
1207;BME280;593;53.184;8.216;2022-08-03T03:33:43;101043.09;;;21.03;95.36
1207;BME280;593;53.184;8.216;2022-08-03T03:36:09;101044.56;;;21.01;95.36
1207;BME280;593;53.184;8.216;2022-08-03T03:38:35;101035.56;;;20.92;95.14
1207;BME280;593;53.184;8.216;2022-08-03T03:41:01;101049.16;;;20.97;95.30
1207;BME280;593;53.184;8.216;2022-08-03T03:43:27;101038.44;;;20.95;95.21
1207;BME280;593;53.184;8.216;2022-08-03T03:45:53;101045.03;;;20.91;95.27
1207;BME280;593;53.184;8.216;2022-08-03T03:48:19;101037.53;;;20.91;95.40
1207;BME280;593;53.184;8.216;2022-08-03T03:50:45;101035.09;;;20.90;95.72
1207;BME280;593;53.184;8.216;2022-08-03T03:53:13;101021.03;;;20.83;95.71
1207;BME280;593;53.184;8.216;2022-08-03T03:55:39;101028.63;;;20.86;95.67
1207;BME280;593;53.184;8.216;2022-08-03T03:58:05;101020.09;;;20.79;96.06
1207;BME280;593;53.184;8.216;2022-08-03T04:00:31;101032.91;;;20.83;96.04
1207;BME280;593;53.184;8.216;2022-08-03T04:02:56;101024.00;;;20.78;96.15
1207;BME280;593;53.184;8.216;2022-08-03T04:05:22;101031.63;;;20.81;95.98
1207;BME280;593;53.184;8.216;2022-08-03T04:08:11;101029.19;;;20.79;96.29
1207;BME280;593;53.184;8.216;2022-08-03T04:11:13;101030.69;;;20.77;96.67
1207;BME280;593;53.184;8.216;2022-08-03T04:14:06;101034.59;;;20.76;96.42
1207;BME280;593;53.184;8.216;2022-08-03T04:16:37;101028.63;;;20.74;96.41
1207;BME280;593;53.184;8.216;2022-08-03T04:19:09;101027.00;;;20.73;96.67
1207;BME280;593;53.184;8.216;2022-08-03T04:21:43;101025.34;;;20.72;97.02
1207;BME280;593;53.184;8.216;2022-08-03T04:24:12;101030.09;;;20.71;97.33
1207;BME280;593;53.184;8.216;2022-08-03T04:26:40;101029.28;;;20.71;97.73
1207;BME280;593;53.184;8.216;2022-08-03T04:29:09;101019.94;;;20.63;97.59
1207;BME280;593;53.184;8.216;2022-08-03T04:31:35;101032.06;;;20.71;97.69
1207;BME280;593;53.184;8.216;2022-08-03T04:34:02;101034.00;;;20.70;98.08
1207;BME280;593;53.184;8.216;2022-08-03T04:36:32;101038.41;;;20.71;97.89
1207;BME280;593;53.184;8.216;2022-08-03T04:39:13;101035.97;;;20.70;98.37
1207;BME280;593;53.184;8.216;2022-08-03T04:41:42;101032.38;;;20.69;98.00
1207;BME280;593;53.184;8.216;2022-08-03T04:44:10;101033.19;;;20.70;98.37
1207;BME280;593;53.184;8.216;2022-08-03T04:46:38;101021.88;;;20.63;98.70
1207;BME280;593;53.184;8.216;2022-08-03T04:49:04;101036.41;;;20.72;98.95
1207;BME280;593;53.184;8.216;2022-08-03T04:51:31;101029.50;;;20.66;98.87
1207;BME280;593;53.184;8.216;2022-08-03T04:53:59;101034.16;;;20.74;99.10
1207;BME280;593;53.184;8.216;2022-08-03T04:56:24;101031.59;;;20.69;99.13
1207;BME280;593;53.184;8.216;2022-08-03T04:58:50;101039.31;;;20.75;99.76
1207;BME280;593;53.184;8.216;2022-08-03T05:01:15;101044.50;;;20.77;99.89
1207;BME280;593;53.184;8.216;2022-08-03T05:03:41;101041.72;;;20.77;99.94
1207;BME280;593;53.184;8.216;2022-08-03T05:06:06;101046.13;;;20.78;100.00
1207;BME280;593;53.184;8.216;2022-08-03T05:08:32;101050.16;;;20.80;100.00
1207;BME280;593;53.184;8.216;2022-08-03T05:10:57;101055.03;;;20.83;100.00
1207;BME280;593;53.184;8.216;2022-08-03T05:13:23;101056.28;;;20.86;100.00
1207;BME280;593;53.184;8.216;2022-08-03T05:15:48;101056.41;;;20.89;100.00
1207;BME280;593;53.184;8.216;2022-08-03T05:18:13;101051.81;;;20.93;100.00
1207;BME280;593;53.184;8.216;2022-08-03T05:20:39;101049.16;;;20.97;100.00
1207;BME280;593;53.184;8.216;2022-08-03T05:23:04;101048.94;;;21.02;100.00
1207;BME280;593;53.184;8.216;2022-08-03T05:25:30;101047.16;;;21.06;100.00
1207;BME280;593;53.184;8.216;2022-08-03T05:27:55;101050.84;;;21.10;100.00
1207;BME280;593;53.184;8.216;2022-08-03T05:30:21;101047.84;;;21.15;100.00
1207;BME280;593;53.184;8.216;2022-08-03T05:32:46;101056.75;;;21.21;100.00
1207;BME280;593;53.184;8.216;2022-08-03T05:35:12;101057.56;;;21.21;100.00
1207;BME280;593;53.184;8.216;2022-08-03T05:37:37;101060.09;;;21.26;100.00
1207;BME280;593;53.184;8.216;2022-08-03T05:40:04;101068.19;;;21.31;100.00
1207;BME280;593;53.184;8.216;2022-08-03T05:42:29;101064.38;;;21.36;100.00
1207;BME280;593;53.184;8.216;2022-08-03T05:44:55;101059.88;;;21.43;100.00
1207;BME280;593;53.184;8.216;2022-08-03T05:47:20;101068.53;;;21.42;100.00
1207;BME280;593;53.184;8.216;2022-08-03T05:49:45;101074.31;;;21.49;100.00
1207;BME280;593;53.184;8.216;2022-08-03T05:52:11;101066.69;;;21.58;100.00
1207;BME280;593;53.184;8.216;2022-08-03T05:54:36;101064.94;;;21.65;100.00
1207;BME280;593;53.184;8.216;2022-08-03T05:57:02;101059.16;;;21.70;100.00
1207;BME280;593;53.184;8.216;2022-08-03T05:59:28;101064.69;;;21.83;100.00
1207;BME280;593;53.184;8.216;2022-08-03T06:01:53;101059.06;;;21.91;100.00
1207;BME280;593;53.184;8.216;2022-08-03T06:04:18;101065.28;;;22.00;100.00
1207;BME280;593;53.184;8.216;2022-08-03T06:06:44;101064.34;;;22.08;100.00
1207;BME280;593;53.184;8.216;2022-08-03T06:09:10;101066.75;;;22.22;100.00
1207;BME280;593;53.184;8.216;2022-08-03T06:11:36;101063.81;;;22.30;100.00
1207;BME280;593;53.184;8.216;2022-08-03T06:14:02;101060.56;;;22.41;100.00
1207;BME280;593;53.184;8.216;2022-08-03T06:16:27;101062.81;;;22.51;100.00
1207;BME280;593;53.184;8.216;2022-08-03T06:18:53;101065.56;;;22.63;100.00
1207;BME280;593;53.184;8.216;2022-08-03T06:21:18;101057.44;;;22.70;100.00
1207;BME280;593;53.184;8.216;2022-08-03T06:23:44;101067.78;;;22.85;100.00
1207;BME280;593;53.184;8.216;2022-08-03T06:26:10;101075.69;;;22.98;100.00
1207;BME280;593;53.184;8.216;2022-08-03T06:28:35;101074.47;;;23.12;100.00
1207;BME280;593;53.184;8.216;2022-08-03T06:31:01;101076.72;;;23.22;100.00
1207;BME280;593;53.184;8.216;2022-08-03T06:33:27;101075.00;;;23.33;100.00
1207;BME280;593;53.184;8.216;2022-08-03T06:35:52;101078.06;;;23.43;99.91
1207;BME280;593;53.184;8.216;2022-08-03T06:38:18;101075.91;;;23.52;99.70
1207;BME280;593;53.184;8.216;2022-08-03T06:40:44;101078.59;;;23.65;99.50
1207;BME280;593;53.184;8.216;2022-08-03T06:43:09;101080.47;;;23.76;98.99
1207;BME280;593;53.184;8.216;2022-08-03T06:45:36;101085.91;;;23.88;98.88
1207;BME280;593;53.184;8.216;2022-08-03T06:48:03;101077.44;;;24.00;98.58
1207;BME280;593;53.184;8.216;2022-08-03T06:50:29;101088.47;;;24.12;97.91
1207;BME280;593;53.184;8.216;2022-08-03T06:52:55;101084.78;;;24.24;97.63
1207;BME280;593;53.184;8.216;2022-08-03T06:55:21;101091.81;;;24.37;96.97
1207;BME280;593;53.184;8.216;2022-08-03T06:57:46;101077.16;;;24.40;96.04
1207;BME280;593;53.184;8.216;2022-08-03T07:00:12;101092.97;;;24.55;95.45
1207;BME280;593;53.184;8.216;2022-08-03T07:02:38;101097.09;;;24.61;95.06
1207;BME280;593;53.184;8.216;2022-08-03T07:05:04;101092.03;;;24.67;94.79
1207;BME280;593;53.184;8.216;2022-08-03T07:07:30;101101.34;;;24.74;94.39
1207;BME280;593;53.184;8.216;2022-08-03T07:09:55;101093.53;;;24.80;94.13
1207;BME280;593;53.184;8.216;2022-08-03T07:12:20;101103.00;;;24.98;93.15
1207;BME280;593;53.184;8.216;2022-08-03T07:14:46;101105.91;;;25.05;92.49
1207;BME280;593;53.184;8.216;2022-08-03T07:17:11;101110.44;;;25.13;92.69
1207;BME280;593;53.184;8.216;2022-08-03T07:19:37;101098.66;;;25.20;92.80
1207;BME280;593;53.184;8.216;2022-08-03T07:22:02;101102.38;;;25.27;92.52
1207;BME280;593;53.184;8.216;2022-08-03T07:24:28;101101.31;;;25.35;92.06
1207;BME280;593;53.184;8.216;2022-08-03T07:26:53;101104.66;;;25.44;91.69
1207;BME280;593;53.184;8.216;2022-08-03T07:29:18;101103.66;;;25.53;91.44
1207;BME280;593;53.184;8.216;2022-08-03T07:31:44;101106.91;;;25.58;90.69
1207;BME280;593;53.184;8.216;2022-08-03T07:34:10;101101.47;;;25.65;90.51
1207;BME280;593;53.184;8.216;2022-08-03T07:36:35;101111.59;;;25.77;90.95
1207;BME280;593;53.184;8.216;2022-08-03T07:39:01;101110.09;;;25.83;90.82
1207;BME280;593;53.184;8.216;2022-08-03T07:41:27;101103.44;;;25.91;90.54
1207;BME280;593;53.184;8.216;2022-08-03T07:43:52;101113.91;;;25.97;90.29
1207;BME280;593;53.184;8.216;2022-08-03T07:46:18;101110.00;;;26.02;89.94
1207;BME280;593;53.184;8.216;2022-08-03T07:48:43;101105.78;;;26.12;88.62
1207;BME280;593;53.184;8.216;2022-08-03T07:51:09;101112.28;;;26.19;88.10
1207;BME280;593;53.184;8.216;2022-08-03T07:53:34;101096.81;;;26.25;87.60
1207;BME280;593;53.184;8.216;2022-08-03T07:55:59;101107.31;;;26.35;87.36
1207;BME280;593;53.184;8.216;2022-08-03T07:58:25;101104.97;;;26.41;87.57
1207;BME280;593;53.184;8.216;2022-08-03T08:00:50;101109.41;;;26.42;86.89
1207;BME280;593;53.184;8.216;2022-08-03T08:03:17;101107.56;;;26.53;84.96
1207;BME280;593;53.184;8.216;2022-08-03T08:05:42;101097.97;;;26.50;85.33
1207;BME280;593;53.184;8.216;2022-08-03T08:08:12;101098.47;;;26.59;84.33
1207;BME280;593;53.184;8.216;2022-08-03T08:10:38;101109.78;;;26.73;84.49
1207;BME280;593;53.184;8.216;2022-08-03T08:13:04;101109.47;;;26.79;82.64
1207;BME280;593;53.184;8.216;2022-08-03T08:15:29;101105.09;;;26.78;82.31
1207;BME280;593;53.184;8.216;2022-08-03T08:17:58;101108.78;;;26.89;81.86
1207;BME280;593;53.184;8.216;2022-08-03T08:20:28;101118.44;;;26.95;81.04
1207;BME280;593;53.184;8.216;2022-08-03T08:22:59;101098.50;;;26.96;79.87
1207;BME280;593;53.184;8.216;2022-08-03T08:25:25;101090.19;;;27.00;80.69
1207;BME280;593;53.184;8.216;2022-08-03T08:27:50;101104.59;;;27.05;80.18
1207;BME280;593;53.184;8.216;2022-08-03T08:30:18;101092.63;;;27.08;80.06
1207;BME280;593;53.184;8.216;2022-08-03T08:32:44;101104.75;;;27.19;80.69
1207;BME280;593;53.184;8.216;2022-08-03T08:35:11;101105.19;;;27.25;80.67
1207;BME280;593;53.184;8.216;2022-08-03T08:37:38;101102.88;;;27.30;80.47
1207;BME280;593;53.184;8.216;2022-08-03T08:40:06;101107.28;;;27.35;80.13
1207;BME280;593;53.184;8.216;2022-08-03T08:42:32;101094.09;;;27.32;79.36
1207;BME280;593;53.184;8.216;2022-08-03T08:45:01;101090.53;;;27.35;78.92
1207;BME280;593;53.184;8.216;2022-08-03T08:47:30;101097.00;;;27.43;78.75
1207;BME280;593;53.184;8.216;2022-08-03T08:49:58;101104.19;;;27.44;78.64
1207;BME280;593;53.184;8.216;2022-08-03T08:52:27;101103.44;;;27.47;78.50
1207;BME280;593;53.184;8.216;2022-08-03T08:54:59;101104.66;;;27.49;78.87
1207;BME280;593;53.184;8.216;2022-08-03T08:57:30;101093.09;;;27.51;79.22
1207;BME280;593;53.184;8.216;2022-08-03T08:59:58;101100.69;;;27.54;79.55
1207;BME280;593;53.184;8.216;2022-08-03T09:02:23;101113.94;;;27.60;78.56
1207;BME280;593;53.184;8.216;2022-08-03T09:04:49;101112.38;;;27.63;77.49
1207;BME280;593;53.184;8.216;2022-08-03T09:07:15;101107.56;;;27.63;76.55
1207;BME280;593;53.184;8.216;2022-08-03T09:09:40;101112.78;;;27.68;75.98
1207;BME280;593;53.184;8.216;2022-08-03T09:12:07;101106.38;;;27.64;75.39
1207;BME280;593;53.184;8.216;2022-08-03T09:14:33;101089.19;;;27.62;75.27
1207;BME280;593;53.184;8.216;2022-08-03T09:17:00;101107.63;;;27.70;74.96
1207;BME280;593;53.184;8.216;2022-08-03T09:19:33;101106.06;;;27.73;74.15
1207;BME280;593;53.184;8.216;2022-08-03T09:22:13;101101.25;;;27.73;73.66
1207;BME280;593;53.184;8.216;2022-08-03T09:24:56;101100.50;;;27.80;72.64
1207;BME280;593;53.184;8.216;2022-08-03T09:27:22;101098.09;;;27.78;72.83
1207;BME280;593;53.184;8.216;2022-08-03T09:29:48;101097.72;;;27.80;71.93
1207;BME280;593;53.184;8.216;2022-08-03T09:32:14;101092.94;;;27.80;70.74
1207;BME280;593;53.184;8.216;2022-08-03T09:34:41;101094.91;;;27.83;70.47
1207;BME280;593;53.184;8.216;2022-08-03T09:37:14;101098.16;;;27.85;71.60
1207;BME280;593;53.184;8.216;2022-08-03T09:39:41;101096.56;;;27.88;69.87
1207;BME280;593;53.184;8.216;2022-08-03T09:42:12;101090.59;;;27.89;69.95
1207;BME280;593;53.184;8.216;2022-08-03T09:44:42;101085.44;;;27.95;68.74
1207;BME280;593;53.184;8.216;2022-08-03T09:47:09;101099.00;;;27.96;67.52
1207;BME280;593;53.184;8.216;2022-08-03T09:49:35;101093.81;;;27.95;66.80
1207;BME280;593;53.184;8.216;2022-08-03T09:52:14;101095.03;;;27.97;67.40
1207;BME280;593;53.184;8.216;2022-08-03T09:54:41;101087.06;;;27.99;68.29
1207;BME280;593;53.184;8.216;2022-08-03T09:57:08;101088.31;;;28.02;67.38
1207;BME280;593;53.184;8.216;2022-08-03T09:59:43;101082.31;;;28.04;67.21
1207;BME280;593;53.184;8.216;2022-08-03T10:02:20;101077.13;;;28.06;68.04
1207;BME280;593;53.184;8.216;2022-08-03T10:04:46;101083.53;;;28.10;68.46
1207;BME280;593;53.184;8.216;2022-08-03T10:07:14;101084.78;;;28.16;68.20
1207;BME280;593;53.184;8.216;2022-08-03T10:09:54;101075.22;;;28.20;68.03
1207;BME280;593;53.184;8.216;2022-08-03T10:12:20;101088.84;;;28.25;67.46
1207;BME280;593;53.184;8.216;2022-08-03T10:14:46;101088.06;;;28.28;66.71
1207;BME280;593;53.184;8.216;2022-08-03T10:17:12;101090.47;;;28.30;66.30
1207;BME280;593;53.184;8.216;2022-08-03T10:19:38;101078.06;;;28.34;67.11
1207;BME280;593;53.184;8.216;2022-08-03T10:22:09;101094.50;;;28.39;67.46
1207;BME280;593;53.184;8.216;2022-08-03T10:24:39;101081.72;;;28.42;67.29
1207;BME280;593;53.184;8.216;2022-08-03T10:27:06;101078.53;;;28.47;66.56
1207;BME280;593;53.184;8.216;2022-08-03T10:29:54;101081.75;;;28.52;67.61
1207;BME280;593;53.184;8.216;2022-08-03T10:32:39;101086.19;;;28.57;65.67
1207;BME280;593;53.184;8.216;2022-08-03T10:35:10;101078.97;;;28.59;66.43
1207;BME280;593;53.184;8.216;2022-08-03T10:37:41;101083.44;;;28.64;65.26
1207;BME280;593;53.184;8.216;2022-08-03T10:40:09;101079.06;;;28.70;64.90
1207;BME280;593;53.184;8.216;2022-08-03T10:42:36;101079.88;;;28.74;64.09
1207;BME280;593;53.184;8.216;2022-08-03T10:45:13;101076.28;;;28.77;64.31
1207;BME280;593;53.184;8.216;2022-08-03T10:47:42;101083.91;;;28.80;63.76
1207;BME280;593;53.184;8.216;2022-08-03T10:50:08;101074.72;;;28.83;63.02
1207;BME280;593;53.184;8.216;2022-08-03T10:52:34;101066.69;;;28.85;63.34
1207;BME280;593;53.184;8.216;2022-08-03T10:55:00;101067.50;;;28.89;63.81
1207;BME280;593;53.184;8.216;2022-08-03T10:57:48;101073.09;;;28.96;62.85
1207;BME280;593;53.184;8.216;2022-08-03T11:00:19;101072.34;;;29.03;63.29
1207;BME280;593;53.184;8.216;2022-08-03T11:03:05;101069.53;;;29.06;63.63
1207;BME280;593;53.184;8.216;2022-08-03T11:05:42;101069.13;;;29.11;62.87
1207;BME280;593;53.184;8.216;2022-08-03T11:08:25;101078.81;;;29.21;64.61
1207;BME280;593;53.184;8.216;2022-08-03T11:10:57;101070.81;;;29.23;62.38
1207;BME280;593;53.184;8.216;2022-08-03T11:13:24;101071.19;;;29.29;62.51
1207;BME280;593;53.184;8.216;2022-08-03T11:15:52;101073.59;;;29.34;62.49
1207;BME280;593;53.184;8.216;2022-08-03T11:18:18;101072.41;;;29.38;62.51
1207;BME280;593;53.184;8.216;2022-08-03T11:23:40;101071.19;;;29.43;58.33
1207;BME280;593;53.184;8.216;2022-08-03T11:26:16;101072.00;;;29.50;61.08
1207;BME280;593;53.184;8.216;2022-08-03T11:28:45;101068.38;;;29.57;59.93
1207;BME280;593;53.184;8.216;2022-08-03T11:34:18;101068.38;;;29.67;60.65
1207;BME280;593;53.184;8.216;2022-08-03T11:37:18;101068.78;;;29.73;59.77
1207;BME280;593;53.184;8.216;2022-08-03T11:39:45;101066.81;;;29.80;59.99
1207;BME280;593;53.184;8.216;2022-08-03T11:44:50;101064.38;;;29.93;60.54
1207;BME280;593;53.184;8.216;2022-08-03T11:47:16;101060.75;;;29.96;59.69
1207;BME280;593;53.184;8.216;2022-08-03T11:49:49;101073.56;;;30.04;59.36
1207;BME280;593;53.184;8.216;2022-08-03T11:52:15;101069.56;;;30.09;60.81
1207;BME280;593;53.184;8.216;2022-08-03T11:54:42;101066.72;;;30.12;59.25
1207;BME280;593;53.184;8.216;2022-08-03T11:57:07;101073.13;;;30.16;60.20
1207;BME280;593;53.184;8.216;2022-08-03T11:59:34;101075.50;;;30.21;58.41
1207;BME280;593;53.184;8.216;2022-08-03T12:02:11;101069.50;;;30.23;57.72
1207;BME280;593;53.184;8.216;2022-08-03T12:04:52;101072.69;;;30.28;58.34
1207;BME280;593;53.184;8.216;2022-08-03T12:07:18;101071.09;;;30.34;59.94
1207;BME280;593;53.184;8.216;2022-08-03T12:10:10;101073.09;;;30.37;59.93
1207;BME280;593;53.184;8.216;2022-08-03T12:12:37;101061.00;;;30.44;58.66
1207;BME280;593;53.184;8.216;2022-08-03T12:15:03;101057.78;;;30.49;59.38
1207;BME280;593;53.184;8.216;2022-08-03T12:17:35;101064.97;;;30.57;62.60
1207;BME280;593;53.184;8.216;2022-08-03T12:20:01;101061.72;;;30.66;62.50
1207;BME280;593;53.184;8.216;2022-08-03T12:22:35;101038.88;;;30.60;60.90
1207;BME280;593;53.184;8.216;2022-08-03T12:25:02;101055.63;;;30.74;56.72
1207;BME280;593;53.184;8.216;2022-08-03T12:27:28;101057.63;;;30.81;60.52
1207;BME280;593;53.184;8.216;2022-08-03T12:29:54;101049.56;;;30.86;60.91
1207;BME280;593;53.184;8.216;2022-08-03T12:32:21;101054.38;;;30.86;58.44
1207;BME280;593;53.184;8.216;2022-08-03T12:34:48;101055.19;;;30.86;57.00
1207;BME280;593;53.184;8.216;2022-08-03T12:37:17;101054.78;;;30.88;55.60
1207;BME280;593;53.184;8.216;2022-08-03T12:39:49;101055.56;;;30.95;59.12
1207;BME280;593;53.184;8.216;2022-08-03T12:42:15;101053.88;;;31.01;59.36
1207;BME280;593;53.184;8.216;2022-08-03T12:44:40;101048.69;;;31.03;59.73
1207;BME280;593;53.184;8.216;2022-08-03T12:47:06;101048.59;;;31.14;60.69
1207;BME280;593;53.184;8.216;2022-08-03T12:49:46;101044.13;;;31.24;61.58
1207;BME280;593;53.184;8.216;2022-08-03T12:52:12;101042.44;;;31.30;62.05
1207;BME280;593;53.184;8.216;2022-08-03T12:54:37;101046.00;;;31.37;61.72
1207;BME280;593;53.184;8.216;2022-08-03T12:59:34;101038.69;;;31.50;59.96
1207;BME280;593;53.184;8.216;2022-08-03T13:02:02;101048.28;;;31.56;60.35
1207;BME280;593;53.184;8.216;2022-08-03T13:04:33;101040.97;;;31.62;60.67
1207;BME280;593;53.184;8.216;2022-08-03T13:07:04;101049.75;;;31.72;60.17
1207;BME280;593;53.184;8.216;2022-08-03T13:09:43;101048.94;;;31.71;60.40
1207;BME280;593;53.184;8.216;2022-08-03T13:12:10;101058.13;;;31.79;57.71
1207;BME280;593;53.184;8.216;2022-08-03T13:14:36;101048.44;;;31.80;58.18
1207;BME280;593;53.184;8.216;2022-08-03T13:17:02;101051.53;;;31.92;59.85
1207;BME280;593;53.184;8.216;2022-08-03T13:19:28;101047.00;;;32.02;59.78
1207;BME280;593;53.184;8.216;2022-08-03T13:21:53;101047.00;;;32.05;57.19
1207;BME280;593;53.184;8.216;2022-08-03T13:24:18;101053.72;;;32.15;54.30
1207;BME280;593;53.184;8.216;2022-08-03T13:26:44;101050.03;;;32.21;56.23
1207;BME280;593;53.184;8.216;2022-08-03T13:29:09;101055.97;;;32.27;56.49
1207;BME280;593;53.184;8.216;2022-08-03T13:31:34;101050.66;;;32.36;57.32
1207;BME280;593;53.184;8.216;2022-08-03T13:34:00;101051.72;;;32.46;57.77
1207;BME280;593;53.184;8.216;2022-08-03T13:36:26;101052.47;;;32.53;56.57
1207;BME280;593;53.184;8.216;2022-08-03T13:38:52;101043.56;;;32.55;55.31
1207;BME280;593;53.184;8.216;2022-08-03T13:41:17;101041.84;;;32.64;54.15
1207;BME280;593;53.184;8.216;2022-08-03T13:43:42;101039.72;;;32.72;53.76